createdAt,value
2022-08-08T00:02:31.187Z,99014.16
2022-08-08T00:04:53.097Z,99017.06
2022-08-08T00:07:53.241Z,99019.97
2022-08-08T00:10:35.477Z,99021.91
2022-08-08T00:13:02.088Z,99015.53
2022-08-08T00:15:56.602Z,99020.00
2022-08-08T00:18:30.329Z,99022.28
2022-08-08T00:21:01.964Z,99021.94
2022-08-08T00:23:43.226Z,99031.88
2022-08-08T00:26:30.114Z,99026.78
2022-08-08T00:29:12.651Z,99018.78
2022-08-08T00:32:14.992Z,99021.03
2022-08-08T00:35:20.384Z,99024.56
2022-08-08T00:38:01.520Z,99017.72
2022-08-08T00:41:12.532Z,98990.22
2022-08-08T00:43:59.179Z,98983.50
2022-08-08T00:46:57.252Z,98985.59
2022-08-08T00:49:32.184Z,98977.44
2022-08-08T00:52:21.505Z,98975.03
2022-08-08T00:55:16.787Z,98974.06
2022-08-08T00:58:13.526Z,98976.03
2022-08-08T01:00:55.972Z,98975.22
2022-08-08T01:03:59.583Z,98970.09
2022-08-08T01:07:18.008Z,98963.75
2022-08-08T01:09:59.280Z,98963.75
2022-08-08T01:12:47.051Z,98969.66
2022-08-08T01:15:43.557Z,98962.28
2022-08-08T01:18:54.819Z,98967.72
2022-08-08T01:22:10.101Z,98967.44
2022-08-08T01:25:14.352Z,98973.00
2022-08-08T01:28:27.754Z,98969.19
2022-08-08T01:32:06.814Z,98969.03
2022-08-08T01:34:22.580Z,98976.19
2022-08-08T01:37:48.015Z,98982.75
2022-08-08T01:40:28.171Z,98991.03
2022-08-08T01:43:20.736Z,98995.66
2022-08-08T01:45:54.411Z,98991.66
2022-08-08T01:48:31.488Z,98997.41
2022-08-08T01:51:29.852Z,99011.59
2022-08-08T01:55:25.600Z,99002.00
2022-08-08T01:58:10.728Z,99017.47
2022-08-08T02:01:18.922Z,99023.03
2022-08-08T02:03:57.445Z,99027.59
2022-08-08T02:06:52.878Z,99036.88
2022-08-08T02:09:50.223Z,99035.59
2022-08-08T02:12:32.444Z,99040.34
2022-08-08T02:15:11.371Z,99039.09
2022-08-08T02:18:19.612Z,99050.56
2022-08-08T02:21:24.409Z,99056.75
2022-08-08T02:24:16.273Z,99057.09
2022-08-08T02:27:16.781Z,99047.88
2022-08-08T02:30:13.071Z,99044.66
2022-08-08T02:33:24.920Z,99039.25
2022-08-08T02:36:23.667Z,99033.94
2022-08-08T02:39:40.482Z,99027.28
2022-08-08T02:42:13.717Z,99021.38
2022-08-08T02:45:22.172Z,99031.91
2022-08-08T02:48:26.073Z,99031.34
2022-08-08T02:51:11.694Z,99031.97
2022-08-08T02:54:16.864Z,99025.81
2022-08-08T02:56:47.828Z,99033.41
2022-08-08T02:59:58.394Z,99040.84
2022-08-08T03:02:53.353Z,99053.53
2022-08-08T03:05:45.334Z,99054.69
2022-08-08T03:08:22.368Z,99066.25
2022-08-08T03:11:13.836Z,99064.16
2022-08-08T03:16:01.306Z,99058.13
2022-08-08T03:17:20.153Z,99069.47
2022-08-08T03:20:07.802Z,99068.47
2022-08-08T03:22:44.464Z,99066.25
2022-08-08T03:25:17.955Z,99055.91
2022-08-08T03:27:59.381Z,99054.44
2022-08-08T03:30:27.085Z,99049.38
2022-08-08T03:33:56.196Z,99042.59
2022-08-08T03:36:00.569Z,99055.16
2022-08-08T03:38:58.247Z,99055.16
2022-08-08T03:42:12.420Z,99051.97
2022-08-08T03:44:01.677Z,99049.56
2022-08-08T03:46:32.649Z,99051.34
2022-08-08T03:49:31.016Z,99043.69
2022-08-08T03:51:57.205Z,99047.50
2022-08-08T03:54:52.579Z,99047.38
2022-08-08T03:58:30.246Z,99055.34
2022-08-08T04:00:18.332Z,99051.19
2022-08-08T04:02:58.775Z,99049.13
2022-08-08T04:05:30.536Z,99044.69
2022-08-08T04:07:58.940Z,99049.31
2022-08-08T04:10:32.223Z,99042.94
2022-08-08T04:13:00.482Z,99041.22
2022-08-08T04:15:38.428Z,99038.56
2022-08-08T04:18:06.312Z,99035.41
2022-08-08T04:20:36.624Z,99029.22
2022-08-08T04:23:07.717Z,99017.91
2022-08-08T04:25:38.437Z,99017.28
2022-08-08T04:28:36.358Z,99015.06
2022-08-08T04:30:55.348Z,99006.00
2022-08-08T04:33:24.597Z,99005.69
2022-08-08T04:35:54.032Z,98995.31
2022-08-08T04:38:22.921Z,98997.09
2022-08-08T04:40:53.368Z,98998.38
2022-08-08T04:43:32.257Z,98991.03
2022-08-08T04:46:09.613Z,98978.09
2022-08-08T04:48:36.213Z,98976.38
2022-08-08T04:51:02.873Z,98963.75
2022-08-08T04:54:36.046Z,98957.66
2022-08-08T04:56:17.654Z,98945.03
2022-08-08T04:58:44.643Z,98938.59
2022-08-08T05:01:15.150Z,98938.25
2022-08-08T05:04:07.956Z,98935.50
2022-08-08T05:06:29.494Z,98945.34
2022-08-08T05:09:02.647Z,98928.69
2022-08-08T05:11:39.257Z,98925.94
2022-08-08T05:14:07.520Z,98923.06
2022-08-08T05:16:54.507Z,98927.84
2022-08-08T05:20:04.243Z,98921.59
2022-08-08T05:22:10.334Z,98906.50
2022-08-08T05:24:38.421Z,98910.63
2022-08-08T05:27:06.288Z,98905.47
2022-08-08T05:29:36.079Z,98901.41
2022-08-08T05:32:07.361Z,98896.56
2022-08-08T05:34:40.893Z,98882.91
2022-08-08T05:37:18.665Z,98883.97
2022-08-08T05:39:52.802Z,98891.94
2022-08-08T05:42:26.298Z,98887.41
2022-08-08T05:45:00.445Z,98885.41
2022-08-08T05:47:30.037Z,98884.94
2022-08-08T05:50:14.315Z,98881.81
2022-08-08T05:52:44.079Z,98872.56
2022-08-08T05:55:14.299Z,98871.50
2022-08-08T05:58:04.037Z,98869.13
2022-08-08T06:00:34.034Z,98880.16
2022-08-08T06:03:17.215Z,98878.81
2022-08-08T06:06:06.591Z,98883.69
2022-08-08T06:08:53.330Z,98875.44
2022-08-08T06:11:22.625Z,98880.00
2022-08-08T06:13:55.164Z,98888.53
2022-08-08T06:16:25.070Z,98878.69
2022-08-08T06:19:00.382Z,98895.03
2022-08-08T06:21:48.449Z,98890.47
2022-08-08T06:24:22.970Z,98899.91
2022-08-08T06:27:03.625Z,98909.66
2022-08-08T06:30:00.836Z,98917.03
2022-08-08T06:32:33.750Z,98923.16
2022-08-08T06:35:30.705Z,98916.06
2022-08-08T06:38:05.185Z,98926.25
2022-08-08T06:40:39.999Z,98929.47
2022-08-08T06:43:30.717Z,98938.50
2022-08-08T06:46:02.456Z,98952.78
2022-08-08T06:48:30.322Z,98957.78
2022-08-08T06:50:58.411Z,98974.00
2022-08-08T06:53:39.317Z,98971.59
2022-08-08T06:56:07.933Z,98984.38
2022-08-08T06:58:35.557Z,98997.22
2022-08-08T07:01:52.431Z,99004.09
2022-08-08T07:04:40.234Z,99019.47
2022-08-08T07:06:46.967Z,99040.03
2022-08-08T07:09:21.219Z,99029.38
2022-08-08T07:11:54.943Z,99039.84
2022-08-08T07:14:37.649Z,99047.53
2022-08-08T07:17:14.130Z,99056.44
2022-08-08T07:19:48.187Z,99068.09
2022-08-08T07:22:24.743Z,99086.66
2022-08-08T07:24:55.101Z,99097.97
2022-08-08T07:27:35.440Z,99104.47
2022-08-08T07:30:18.108Z,99131.63
2022-08-08T07:32:51.924Z,99165.22
2022-08-08T07:35:19.596Z,99183.25
2022-08-08T07:37:56.532Z,99211.47
2022-08-08T07:40:35.717Z,99247.66
2022-08-08T07:43:09.227Z,99278.53
2022-08-08T07:46:05.565Z,99291.28
2022-08-08T07:48:29.616Z,99316.59
2022-08-08T07:51:00.965Z,99351.66
2022-08-08T07:54:02.223Z,99373.81
2022-08-08T07:56:40.747Z,99386.88
2022-08-08T07:59:16.277Z,99396.63
2022-08-08T08:02:36.323Z,99399.88
2022-08-08T08:04:49.170Z,99415.78
2022-08-08T08:07:23.830Z,99433.84
2022-08-08T08:10:01.411Z,99434.75
2022-08-08T08:12:35.439Z,99452.16
2022-08-08T08:15:15.120Z,99473.97
2022-08-08T08:17:48.623Z,99489.50
2022-08-08T08:20:19.044Z,99507.72
2022-08-08T08:22:48.913Z,99524.41
2022-08-08T08:25:41.000Z,99539.44
2022-08-08T08:28:05.200Z,99547.06
2022-08-08T08:30:39.675Z,99574.31
2022-08-08T08:33:06.512Z,99602.84
2022-08-08T08:36:17.742Z,99628.84
2022-08-08T08:38:24.713Z,99641.44
2022-08-08T08:40:52.574Z,99651.03
2022-08-08T08:43:20.749Z,99672.41
2022-08-08T08:45:57.186Z,99680.47
2022-08-08T08:48:27.457Z,99666.47
2022-08-08T08:50:58.233Z,99673.00
2022-08-08T08:53:27.415Z,99679.41
2022-08-08T08:56:23.925Z,99704.34
2022-08-08T08:58:52.428Z,99709.81
2022-08-08T09:01:22.506Z,99745.97
2022-08-08T09:03:51.654Z,99745.31
2022-08-08T09:06:34.148Z,99734.97
2022-08-08T09:09:07.470Z,99728.44
2022-08-08T09:12:01.468Z,99730.19
2022-08-08T09:14:34.009Z,99728.88
2022-08-08T09:17:07.099Z,99726.75
2022-08-08T09:22:02.433Z,99743.28
2022-08-08T09:22:26.884Z,99750.28
2022-08-08T09:24:56.268Z,99761.84
2022-08-08T09:27:42.160Z,99772.56
2022-08-08T09:30:17.549Z,99780.84
2022-08-08T09:33:13.125Z,99790.78
2022-08-08T09:35:50.289Z,99793.03
2022-08-08T09:38:54.222Z,99793.03
2022-08-08T09:42:14.221Z,99796.38
2022-08-08T09:44:46.765Z,99787.94
2022-08-08T09:47:27.652Z,99792.16
2022-08-08T09:50:13.589Z,99811.03
2022-08-08T09:52:55.853Z,99817.84
2022-08-08T09:56:04.920Z,99819.06
2022-08-08T09:58:27.648Z,99820.03
2022-08-08T10:01:14.512Z,99823.69
2022-08-08T10:04:02.402Z,99821.16
2022-08-08T10:06:32.865Z,99819.84
2022-08-08T10:09:03.107Z,99825.50
2022-08-08T10:12:28.181Z,99840.91
2022-08-08T10:14:28.173Z,99844.38
2022-08-08T10:18:05.392Z,99847.22
2022-08-08T10:20:00.138Z,99862.97
2022-08-08T10:22:36.026Z,99865.50
2022-08-08T10:25:06.308Z,99857.75
2022-08-08T10:27:42.777Z,99865.00
2022-08-08T10:30:16.343Z,99872.31
2022-08-08T10:33:00.373Z,99877.63
2022-08-08T10:36:19.807Z,99879.66
2022-08-08T10:38:19.802Z,99879.44
2022-08-08T10:40:54.023Z,99886.66
2022-08-08T10:43:22.215Z,99896.22
2022-08-08T10:45:56.411Z,99903.78
2022-08-08T10:48:58.394Z,99911.34
2022-08-08T10:51:31.310Z,99907.84
2022-08-08T10:54:02.513Z,99918.84
2022-08-08T10:56:35.587Z,99916.13
2022-08-08T10:59:09.575Z,99911.13
2022-08-08T11:01:38.358Z,99904.88
2022-08-08T11:04:10.648Z,99917.69
2022-08-08T11:06:41.711Z,99920.22
2022-08-08T11:09:19.461Z,99940.00
2022-08-08T11:12:05.099Z,99944.63
2022-08-08T11:15:00.541Z,99948.94
2022-08-08T11:18:00.336Z,99958.03
2022-08-08T11:20:25.009Z,99955.63
2022-08-08T11:22:57.245Z,99958.38
2022-08-08T11:25:51.657Z,99958.88
2022-08-08T11:28:20.153Z,99955.81
2022-08-08T11:30:52.034Z,99960.66
2022-08-08T11:33:23.232Z,99966.41
2022-08-08T11:36:10.019Z,99966.41
2022-08-08T11:38:54.690Z,99974.34
2022-08-08T11:41:28.212Z,99974.38
2022-08-08T11:44:00.550Z,99978.72
2022-08-08T11:46:31.423Z,99987.44
2022-08-08T11:49:04.767Z,99989.47
2022-08-08T11:51:38.983Z,99987.94
2022-08-08T11:54:32.040Z,100002.88
2022-08-08T11:57:23.693Z,99993.34
2022-08-08T12:00:05.371Z,99992.00
2022-08-08T12:02:55.573Z,99993.63
2022-08-08T12:05:38.444Z,100002.47
2022-08-08T12:08:05.513Z,100003.31
2022-08-08T12:10:34.521Z,100000.16
2022-08-08T12:13:14.293Z,99997.78
2022-08-08T12:15:49.256Z,99998.63
2022-08-08T12:18:24.883Z,99995.50
2022-08-08T12:20:54.968Z,99997.94
2022-08-08T12:23:43.692Z,99995.97
2022-08-08T12:26:27.862Z,99992.03
2022-08-08T12:29:03.147Z,99990.09
2022-08-08T12:31:38.671Z,99997.19
2022-08-08T12:34:13.308Z,99995.97
2022-08-08T12:36:46.430Z,99995.53
2022-08-08T12:39:59.861Z,99997.25
2022-08-08T12:42:20.630Z,99999.59
2022-08-08T12:44:50.249Z,100003.94
2022-08-08T12:47:57.838Z,100003.19
2022-08-08T12:50:15.081Z,100007.06
2022-08-08T12:52:52.789Z,100001.19
2022-08-08T12:55:35.696Z,100003.94
2022-08-08T12:58:15.732Z,100002.25
2022-08-08T13:00:46.231Z,100005.41
2022-08-08T13:03:26.341Z,100007.69
2022-08-08T13:06:06.750Z,100007.69
2022-08-08T13:08:53.662Z,100009.47
2022-08-08T13:12:28.247Z,100021.72
2022-08-08T13:14:53.175Z,100027.78
2022-08-08T13:18:07.754Z,100017.06
2022-08-08T13:20:20.369Z,100024.81
2022-08-08T13:22:47.663Z,100018.66
2022-08-08T13:25:22.080Z,100023.41
2022-08-08T13:27:54.492Z,100026.00
2022-08-08T13:30:26.644Z,100029.34
2022-08-08T13:32:57.217Z,100028.53
2022-08-08T13:35:29.616Z,100027.00
2022-08-08T13:38:08.342Z,100022.25
2022-08-08T13:40:44.720Z,100025.47
2022-08-08T13:43:15.902Z,100033.03
2022-08-08T13:45:43.607Z,100032.91
2022-08-08T13:48:16.828Z,100033.88
2022-08-08T13:50:52.389Z,100024.94
2022-08-08T13:53:31.485Z,100024.81
2022-08-08T13:56:05.315Z,100022.81
2022-08-08T13:58:33.089Z,100027.50
2022-08-08T14:01:19.486Z,100028.31
2022-08-08T14:03:58.376Z,100023.75
2022-08-08T14:06:33.114Z,100030.19
2022-08-08T14:09:18.539Z,100028.47
2022-08-08T14:11:48.987Z,100030.81
2022-08-08T14:14:20.918Z,100032.25
2022-08-08T14:16:52.912Z,100026.47
2022-08-08T14:19:57.887Z,100029.97
2022-08-08T14:22:22.211Z,100033.91
2022-08-08T14:24:56.403Z,100034.16
2022-08-08T14:27:30.548Z,100043.41
2022-08-08T14:30:03.404Z,100047.88
2022-08-08T14:32:52.749Z,100043.31
2022-08-08T14:35:24.752Z,100046.66
2022-08-08T14:38:09.447Z,100057.06
2022-08-08T14:40:40.486Z,100055.56
2022-08-08T14:43:31.441Z,100053.59
2022-08-08T14:46:06.032Z,100053.69
2022-08-08T14:48:52.213Z,100056.94
2022-08-08T14:51:25.562Z,100053.38
2022-08-08T14:54:12.372Z,100055.81
2022-08-08T14:56:41.208Z,100058.63
2022-08-08T14:59:22.455Z,100052.28
2022-08-08T15:01:59.625Z,100058.28
2022-08-08T15:04:26.532Z,100056.34
2022-08-08T15:06:53.218Z,100058.34
2022-08-08T15:09:22.550Z,100045.22
2022-08-08T15:11:53.011Z,100054.38
2022-08-08T15:14:26.639Z,100055.56
2022-08-08T15:16:54.089Z,100053.97
2022-08-08T15:19:21.350Z,100067.88
2022-08-08T15:21:52.628Z,100064.69
2022-08-08T15:24:20.526Z,100072.25
2022-08-08T15:26:52.629Z,100077.84
2022-08-08T15:29:22.492Z,100076.25
2022-08-08T15:32:18.001Z,100074.25
2022-08-08T15:34:38.804Z,100075.06
2022-08-08T15:37:06.825Z,100073.84
2022-08-08T15:39:37.454Z,100074.28
2022-08-08T15:42:07.059Z,100075.06
2022-08-08T15:44:38.486Z,100074.28
2022-08-08T15:47:07.381Z,100085.38
2022-08-08T15:49:43.937Z,100083.78
2022-08-08T15:52:13.933Z,100083.78
2022-08-08T15:54:43.753Z,100076.22
2022-08-08T15:57:15.568Z,100069.47
2022-08-08T16:00:25.889Z,100077.03
2022-08-08T16:02:30.881Z,100072.66
2022-08-08T16:04:59.422Z,100081.81
2022-08-08T16:07:39.268Z,100080.59
2022-08-08T16:13:21.466Z,100083.81
2022-08-08T16:13:26.758Z,100086.16
2022-08-08T16:15:58.544Z,100084.97
2022-08-08T16:18:30.266Z,100092.16
2022-08-08T16:21:00.176Z,100088.94
2022-08-08T16:23:32.116Z,100093.72
2022-08-08T16:26:04.071Z,100092.53
2022-08-08T16:28:35.919Z,100088.56
2022-08-08T16:31:07.451Z,100088.56
2022-08-08T16:33:39.277Z,100084.56
2022-08-08T16:36:15.740Z,100090.16
2022-08-08T16:38:47.211Z,100096.53
2022-08-08T16:41:20.373Z,100089.41
2022-08-08T16:43:51.186Z,100086.22
2022-08-08T16:46:43.974Z,100091.78
2022-08-08T16:49:07.968Z,100089.38
2022-08-08T16:55:14.033Z,100094.13
2022-08-08T16:55:20.754Z,100096.50
2022-08-08T16:57:27.943Z,100098.91
2022-08-08T17:00:06.564Z,100100.50
2022-08-08T17:02:39.724Z,100102.88
2022-08-08T17:05:08.373Z,100095.31
2022-08-08T17:07:37.412Z,100095.72
2022-08-08T17:10:08.501Z,100104.47
2022-08-08T17:12:36.889Z,100108.47
2022-08-08T17:15:17.921Z,100103.25
2022-08-08T17:18:02.381Z,100101.28
2022-08-08T17:20:31.384Z,100099.69
2022-08-08T17:23:16.492Z,100105.22
2022-08-08T17:25:53.375Z,100104.81
2022-08-08T17:28:34.493Z,100100.03
2022-08-08T17:31:44.419Z,100099.25
2022-08-08T17:34:48.603Z,100112.34
2022-08-08T17:36:57.836Z,100106.69
2022-08-08T17:40:02.890Z,100105.69
2022-08-08T17:42:14.573Z,100105.53
2022-08-08T17:44:44.349Z,100104.22
2022-08-08T17:47:23.391Z,100101.16
2022-08-08T17:49:52.389Z,100095.81
2022-08-08T17:52:23.308Z,100098.38
2022-08-08T17:54:56.092Z,100090.19
2022-08-08T17:57:23.551Z,100090.91
2022-08-08T17:59:51.694Z,100084.00
2022-08-08T18:02:28.669Z,100087.19
2022-08-08T18:04:58.807Z,100087.81
2022-08-08T18:08:03.414Z,100094.03
2022-08-08T18:10:15.717Z,100089.13
2022-08-08T18:12:44.320Z,100090.00
2022-08-08T18:15:13.580Z,100089.81
2022-08-08T18:18:09.854Z,100091.78
2022-08-08T18:20:36.595Z,100081.22
2022-08-08T18:23:15.191Z,100075.47
2022-08-08T18:25:42.939Z,100064.78
2022-08-08T18:28:12.898Z,100057.38
2022-08-08T18:30:40.811Z,100065.94
2022-08-08T18:33:10.496Z,100070.78
2022-08-08T18:35:48.823Z,100063.84
2022-08-08T18:38:16.868Z,100065.13
2022-08-08T18:40:45.714Z,100070.72
2022-08-08T18:43:16.103Z,100067.69
2022-08-08T18:46:00.937Z,100072.63
2022-08-08T18:48:33.840Z,100070.81
2022-08-08T18:51:01.981Z,100068.88
2022-08-08T18:53:50.995Z,100069.69
2022-08-08T18:56:29.897Z,100075.06
2022-08-08T18:58:57.849Z,100073.56
2022-08-08T19:02:25.621Z,100071.66
2022-08-08T19:04:15.059Z,100066.41
2022-08-08T19:06:42.056Z,100055.66
2022-08-08T19:09:15.149Z,100047.47
2022-08-08T19:11:46.644Z,100039.28
2022-08-08T19:14:20.584Z,100039.72
2022-08-08T19:16:48.055Z,100039.44
2022-08-08T19:19:15.952Z,100047.22
2022-08-08T19:21:49.328Z,100050.09
2022-08-08T19:24:38.824Z,100056.56
2022-08-08T19:27:04.009Z,100047.75
2022-08-08T19:29:31.023Z,100043.06
2022-08-08T19:31:57.900Z,100041.03
2022-08-08T19:34:36.560Z,100039.81
2022-08-08T19:37:05.798Z,100033.41
2022-08-08T19:39:35.355Z,100029.25
2022-08-08T19:42:06.793Z,100028.31
2022-08-08T19:44:43.061Z,100020.19
2022-08-08T19:47:14.108Z,100015.13
2022-08-08T19:49:43.072Z,100003.53
2022-08-08T19:52:13.430Z,100000.97
2022-08-08T19:54:41.478Z,99990.91
2022-08-08T19:57:10.073Z,99980.13
2022-08-08T19:59:41.439Z,99974.41
2022-08-08T20:02:10.599Z,99974.91
2022-08-08T20:04:38.290Z,99966.28
2022-08-08T20:08:29.589Z,99964.63
2022-08-08T20:09:57.124Z,99950.88
2022-08-08T20:12:32.840Z,99942.84
2022-08-08T20:15:14.985Z,99944.19
2022-08-08T20:17:45.632Z,99942.31
2022-08-08T20:20:15.955Z,99931.06
2022-08-08T20:22:48.736Z,99928.75
2022-08-08T20:25:20.393Z,99933.63
2022-08-08T20:27:50.398Z,99923.31
2022-08-08T20:30:53.117Z,99910.50
2022-08-08T20:33:19.920Z,99897.78
2022-08-08T20:35:57.081Z,99889.75
2022-08-08T20:38:32.234Z,99887.56
2022-08-08T20:41:00.721Z,99860.38
2022-08-08T20:43:43.707Z,99857.34
2022-08-08T20:46:14.736Z,99833.56
2022-08-08T20:48:43.297Z,99824.91
2022-08-08T20:51:14.455Z,99818.13
2022-08-08T20:53:58.210Z,99819.13
2022-08-08T20:56:35.633Z,99796.94
2022-08-08T20:59:21.257Z,99768.16
2022-08-08T21:02:06.317Z,99739.69
2022-08-08T21:04:35.744Z,99710.09
2022-08-08T21:07:08.039Z,99701.13
2022-08-08T21:10:01.354Z,99703.41
2022-08-08T21:12:24.820Z,99673.84
2022-08-08T21:14:59.140Z,99663.28
2022-08-08T21:17:33.855Z,99651.72
2022-08-08T21:20:03.918Z,99638.38
2022-08-08T21:22:30.873Z,99639.50
2022-08-08T21:24:58.275Z,99640.66
2022-08-08T21:28:05.614Z,99630.56
2022-08-08T21:30:18.878Z,99619.00
2022-08-08T21:32:51.136Z,99624.97
2022-08-08T21:36:14.299Z,99613.88
2022-08-08T21:38:08.537Z,99619.72
2022-08-08T21:40:54.807Z,99614.91
2022-08-08T21:43:24.076Z,99615.56
2022-08-08T21:48:06.767Z,99604.84
2022-08-08T21:48:41.687Z,99595.53
2022-08-08T21:51:13.342Z,99607.59
2022-08-08T21:54:36.070Z,99597.03
2022-08-08T21:56:36.088Z,99575.47
2022-08-08T21:59:09.669Z,99573.28
2022-08-08T22:01:40.365Z,99538.28
2022-08-08T22:04:11.022Z,99545.94
2022-08-08T22:06:40.325Z,99562.31
2022-08-08T22:09:09.049Z,99572.63
2022-08-08T22:11:51.257Z,99569.75
2022-08-08T22:14:26.659Z,99588.53
2022-08-08T22:16:54.145Z,99600.91
2022-08-08T22:19:24.077Z,99598.66
2022-08-08T22:21:52.904Z,99585.31
2022-08-08T22:24:28.158Z,99586.28
2022-08-08T22:27:01.597Z,99592.41
2022-08-08T22:30:02.376Z,99578.63
2022-08-08T22:32:18.807Z,99581.03
2022-08-08T22:34:51.035Z,99563.06
2022-08-08T22:37:49.310Z,99566.44
2022-08-08T22:40:11.727Z,99554.22
2022-08-08T22:42:45.723Z,99560.47
2022-08-08T22:45:14.850Z,99569.47
2022-08-08T22:47:47.061Z,99590.34
2022-08-08T22:50:26.765Z,99588.09
2022-08-08T22:54:29.281Z,99583.28
2022-08-08T22:55:59.641Z,99584.41
2022-08-08T22:58:34.267Z,99582.47
2022-08-08T23:02:00.961Z,99572.69
2022-08-08T23:03:55.799Z,99570.78
2022-08-08T23:06:26.956Z,99566.78
2022-08-08T23:08:59.015Z,99588.09
2022-08-08T23:11:31.252Z,99582.94
2022-08-08T23:14:18.548Z,99572.69
2022-08-08T23:16:57.755Z,99570.75
2022-08-08T23:19:27.712Z,99571.41
2022-08-08T23:22:00.272Z,99572.19
2022-08-08T23:24:26.936Z,99576.19
2022-08-08T23:27:03.840Z,99581.66
2022-08-08T23:29:31.289Z,99578.63
2022-08-08T23:31:58.170Z,99584.72
2022-08-08T23:34:24.836Z,99590.97
2022-08-08T23:37:00.770Z,99595.13
2022-08-08T23:39:42.100Z,99611.16
2022-08-08T23:42:16.329Z,99603.75
2022-08-08T23:44:43.038Z,99603.28
2022-08-08T23:49:01.629Z,99598.00
2022-08-08T23:50:02.846Z,99604.88
2022-08-08T23:52:30.725Z,99601.16
2022-08-08T23:55:07.417Z,99595.41
2022-08-08T23:57:52.185Z,99598.94
